TimeCST,TemperatureF,Dew PointF,Humidity,Sea Level PressureIn,VisibilityMPH,Wind Direction,Wind SpeedMPH,Gust SpeedMPH,PrecipitationIn,Events,Conditions,WindDirDegrees,DateUTC
12:15 AM,32.0,21.2,64,30.05,10.0,WNW,26.5,35.7,N/A,,Overcast,300,2012-11-23 06:15:00
12:35 AM,30.2,21.2,69,30.06,10.0,NW,29.9,36.8,N/A,,Overcast,310,2012-11-23 06:35:00
12:55 AM,30.2,19.4,64,30.06,10.0,WNW,27.6,38.0,N/A,,Overcast,300,2012-11-23 06:55:00
1:15 AM,28.4,17.6,64,30.08,10.0,NW,25.3,33.4,N/A,,Overcast,320,2012-11-23 07:15:00
1:35 AM,28.4,17.6,64,30.08,10.0,WNW,29.9,40.3,N/A,,Overcast,300,2012-11-23 07:35:00
1:55 AM,26.6,14.0,59,30.09,10.0,NW,25.3,35.7,N/A,,Overcast,310,2012-11-23 07:55:00
2:15 AM,26.6,14.0,59,30.10,10.0,NW,27.6,36.8,N/A,,Overcast,310,2012-11-23 08:15:00
2:35 AM,26.6,14.0,59,30.11,10.0,NW,27.6,39.1,N/A,,Overcast,310,2012-11-23 08:35:00
2:55 AM,26.6,14.0,59,30.12,10.0,NW,21.9,38.0,N/A,,Overcast,310,2012-11-23 08:55:00
3:15 AM,-9999,-9999,N/A,30.13,10.0,NW,27.6,39.1,N/A,,Overcast,310,2012-11-23 09:15:00
3:35 AM,-9999,-9999,N/A,30.13,10.0,NW,32.2,42.6,N/A,,Overcast,310,2012-11-23 09:35:00
3:55 AM,-9999,-9999,N/A,30.13,10.0,NW,28.8,42.6,N/A,,Scattered Clouds,310,2012-11-23 09:55:00
4:15 AM,23.0,12.2,63,30.14,10.0,NW,25.3,38.0,N/A,,Clear,310,2012-11-23 10:15:00
4:35 AM,-9999,-9999,N/A,30.15,10.0,NW,27.6,32.2,N/A,,Scattered Clouds,310,2012-11-23 10:35:00
4:55 AM,23.0,12.2,63,30.16,10.0,WNW,29.9,35.7,N/A,,Clear,300,2012-11-23 10:55:00
5:15 AM,23.0,12.2,63,30.17,10.0,NW,27.6,38.0,N/A,,Scattered Clouds,310,2012-11-23 11:15:00
5:35 AM,21.2,12.2,68,30.18,10.0,NW,23.0,36.8,N/A,,Scattered Clouds,310,2012-11-23 11:35:00
5:55 AM,-9999,-9999,N/A,30.19,10.0,NW,25.3,32.2,N/A,,Scattered Clouds,320,2012-11-23 11:55:00
6:15 AM,-9999,-9999,N/A,30.20,10.0,NW,24.2,36.8,N/A,,Overcast,320,2012-11-23 12:15:00
6:35 AM,-9999,-9999,N/A,30.21,10.0,NW,28.8,40.3,N/A,,Overcast,320,2012-11-23 12:35:00
6:55 AM,21.2,10.4,63,30.22,10.0,NW,24.2,32.2,N/A,,Overcast,320,2012-11-23 12:55:00
7:15 AM,21.2,10.4,63,30.22,10.0,NW,25.3,35.7,N/A,Snow,Light Snow,310,2012-11-23 13:15:00
7:35 AM,-9999,-9999,N/A,30.23,10.0,NW,20.7,36.8,N/A,,Unknown,320,2012-11-23 13:35:00
7:55 AM,-9999,-9999,N/A,30.24,7.0,NW,27.6,39.1,N/A,,Unknown,310,2012-11-23 13:55:00
8:15 AM,21.2,12.2,68,30.24,5.0,NW,28.8,38.0,N/A,Snow,Light Snow,320,2012-11-23 14:15:00
8:35 AM,-9999,-9999,N/A,30.26,4.0,NNW,28.8,34.5,N/A,,Unknown,330,2012-11-23 14:35:00
8:55 AM,-9999,-9999,N/A,30.27,10.0,NW,23.0,36.8,N/A,,Overcast,320,2012-11-23 14:55:00
9:15 AM,19.4,10.4,68,30.27,7.0,NNW,28.8,36.8,N/A,Snow,Light Snow,330,2012-11-23 15:15:00
9:35 AM,19.4,10.4,68,30.28,10.0,NW,20.7,36.8,N/A,Snow,Light Snow,320,2012-11-23 15:35:00
9:55 AM,21.2,10.4,63,30.29,10.0,NNW,24.2,33.4,N/A,Snow,Light Snow,330,2012-11-23 15:55:00
10:15 AM,21.2,10.4,63,30.30,10.0,NNW,28.8,34.5,N/A,Snow,Light Snow,330,2012-11-23 16:15:00
10:35 AM,21.2,10.4,63,30.31,10.0,NW,24.2,36.8,N/A,,Overcast,320,2012-11-23 16:35:00
10:55 AM,23.0,10.4,59,30.30,10.0,NW,25.3,32.2,N/A,,Overcast,320,2012-11-23 16:55:00
11:15 AM,23.0,10.4,59,30.30,10.0,NNW,24.2,32.2,N/A,,Overcast,330,2012-11-23 17:15:00
11:35 AM,24.8,10.4,54,30.31,10.0,NNW,23.0,32.2,N/A,,Overcast,330,2012-11-23 17:35:00
11:55 AM,26.6,10.4,51,30.31,10.0,NW,24.2,32.2,N/A,,Overcast,320,2012-11-23 17:55:00
12:15 PM,26.6,10.4,51,30.31,10.0,NNW,20.7,29.9,N/A,,Mostly Cloudy,330,2012-11-23 18:15:00
12:35 PM,26.6,10.4,51,30.31,10.0,NNW,23.0,28.8,N/A,,Scattered Clouds,330,2012-11-23 18:35:00
1:15 PM,28.4,10.4,47,30.30,10.0,NNW,25.3,31.1,N/A,,Clear,330,2012-11-23 19:15:00
1:35 PM,28.4,10.4,47,30.30,10.0,NW,20.7,28.8,N/A,,Clear,320,2012-11-23 19:35:00
1:55 PM,30.2,10.4,44,30.30,10.0,NNW,20.7,28.8,N/A,,Clear,330,2012-11-23 19:55:00
2:15 PM,30.2,10.4,44,30.31,10.0,NW,20.7,28.8,N/A,,Clear,320,2012-11-23 20:15:00
2:35 PM,30.2,10.4,44,30.31,10.0,NNW,20.7,28.8,N/A,,Clear,330,2012-11-23 20:35:00
2:55 PM,30.2,10.4,44,30.31,10.0,NW,15.0,28.8,N/A,,Clear,320,2012-11-23 20:55:00
3:15 PM,28.4,10.4,47,30.32,10.0,NW,18.4,26.5,N/A,,Clear,320,2012-11-23 21:15:00
3:35 PM,28.4,10.4,47,30.33,10.0,NNW,18.4,27.6,N/A,,Clear,330,2012-11-23 21:35:00
3:55 PM,26.6,10.4,51,30.33,10.0,NNW,16.1,25.3,N/A,,Clear,330,2012-11-23 21:55:00
4:15 PM,26.6,10.4,51,30.34,10.0,NNW,18.4,24.2,N/A,,Clear,330,2012-11-23 22:15:00
4:35 PM,26.6,10.4,51,30.34,10.0,NW,15.0,21.9,N/A,,Clear,320,2012-11-23 22:35:00
4:55 PM,24.8,10.4,54,30.34,10.0,NW,15.0,-,N/A,,Clear,320,2012-11-23 22:55:00
5:15 PM,24.8,10.4,54,30.35,10.0,NW,17.3,21.9,N/A,,Clear,320,2012-11-23 23:15:00
5:35 PM,23.0,10.4,59,30.35,10.0,NW,15.0,23.0,N/A,,Clear,320,2012-11-23 23:35:00
5:55 PM,23.0,10.4,59,30.35,10.0,NW,11.5,-,N/A,,Clear,320,2012-11-23 23:55:00
6:15 PM,23.0,10.4,59,30.35,10.0,NW,10.4,20.7,N/A,,Clear,320,2012-11-24 00:15:00
6:35 PM,23.0,10.4,59,30.36,10.0,NW,13.8,18.4,N/A,,Clear,320,2012-11-24 00:35:00
6:55 PM,21.2,10.4,63,30.35,10.0,NW,13.8,21.9,N/A,,Clear,320,2012-11-24 00:55:00
7:15 PM,21.2,10.4,63,30.36,10.0,NW,11.5,20.7,N/A,,Clear,320,2012-11-24 01:15:00
7:35 PM,21.2,10.4,63,30.35,10.0,NNW,13.8,-,N/A,,Clear,330,2012-11-24 01:35:00
7:55 PM,19.4,10.4,68,30.35,10.0,NW,10.4,16.1,N/A,,Clear,320,2012-11-24 01:55:00
8:15 PM,19.4,10.4,68,30.35,10.0,NNW,10.4,-,N/A,,Clear,330,2012-11-24 02:15:00
8:35 PM,19.4,10.4,68,30.34,10.0,NNW,9.2,-,N/A,,Clear,330,2012-11-24 02:35:00
8:55 PM,19.4,10.4,68,30.34,10.0,NNW,10.4,-,N/A,,Clear,330,2012-11-24 02:55:00
9:15 PM,19.4,10.4,68,30.34,10.0,NW,10.4,-,N/A,,Clear,320,2012-11-24 03:15:00
9:35 PM,17.6,10.4,73,30.34,10.0,NNW,8.1,-,N/A,,Clear,330,2012-11-24 03:35:00
9:55 PM,17.6,10.4,73,30.34,10.0,NW,8.1,-,N/A,,Clear,320,2012-11-24 03:55:00
10:15 PM,17.6,10.4,73,30.34,10.0,NNW,6.9,-,N/A,,Clear,330,2012-11-24 04:15:00
10:55 PM,15.8,10.4,79,30.32,10.0,NNW,12.7,16.1,N/A,,Clear,330,2012-11-24 04:55:00
11:15 PM,15.8,10.4,79,30.32,10.0,NNW,10.4,-,N/A,,Clear,330,2012-11-24 05:15:00
11:35 PM,15.8,10.4,79,30.33,10.0,NNW,10.4,-,N/A,,Clear,330,2012-11-24 05:35:00
11:55 PM,14.0,10.4,86,30.33,10.0,NNW,9.2,-,N/A,,Clear,330,2012-11-24 05:55:00